sensor_id;sensor_type;location;lat;lon;timestamp;P1;durP1;ratioP1;P2;durP2;ratioP2
65053;SDS011;51639;47.828;35.038;2023-05-29T00:11:28;14.27;;;10.65;;
65053;SDS011;51639;47.828;35.038;2023-05-29T00:26:31;15.85;;;10.88;;
65053;SDS011;51639;47.828;35.038;2023-05-29T00:41:33;16.15;;;11.23;;
65053;SDS011;51639;47.828;35.038;2023-05-29T00:56:36;18.13;;;11.75;;
65053;SDS011;51639;47.828;35.038;2023-05-29T01:11:45;15.75;;;11.10;;
65053;SDS011;51639;47.828;35.038;2023-05-29T01:27:05;17.58;;;10.90;;
65053;SDS011;51639;47.828;35.038;2023-05-29T01:42:10;15.50;;;9.65;;
65053;SDS011;51639;47.828;35.038;2023-05-29T01:57:13;14.73;;;9.32;;
65053;SDS011;51639;47.828;35.038;2023-05-29T02:12:15;18.15;;;9.80;;
65053;SDS011;51639;47.828;35.038;2023-05-29T02:27:17;15.77;;;10.30;;
65053;SDS011;51639;47.828;35.038;2023-05-29T02:42:19;14.65;;;9.55;;
65053;SDS011;51639;47.828;35.038;2023-05-29T02:57:22;11.10;;;7.90;;
65053;SDS011;51639;47.828;35.038;2023-05-29T03:12:24;16.55;;;10.73;;
65053;SDS011;51639;47.828;35.038;2023-05-29T03:27:26;16.70;;;9.75;;
65053;SDS011;51639;47.828;35.038;2023-05-29T03:42:29;11.68;;;7.68;;
65053;SDS011;51639;47.828;35.038;2023-05-29T03:57:32;22.60;;;9.33;;
65053;SDS011;51639;47.828;35.038;2023-05-29T04:12:34;10.63;;;6.65;;
65053;SDS011;51639;47.828;35.038;2023-05-29T04:27:36;7.75;;;5.15;;
65053;SDS011;51639;47.828;35.038;2023-05-29T04:42:39;12.60;;;5.55;;
65053;SDS011;51639;47.828;35.038;2023-05-29T04:57:43;8.23;;;4.85;;
65053;SDS011;51639;47.828;35.038;2023-05-29T05:12:45;7.43;;;4.65;;
65053;SDS011;51639;47.828;35.038;2023-05-29T05:27:47;8.88;;;4.65;;
65053;SDS011;51639;47.828;35.038;2023-05-29T05:42:49;8.07;;;4.30;;
65053;SDS011;51639;47.828;35.038;2023-05-29T05:57:52;8.38;;;4.00;;
65053;SDS011;51639;47.828;35.038;2023-05-29T06:12:54;10.60;;;4.25;;
65053;SDS011;51639;47.828;35.038;2023-05-29T06:27:56;6.90;;;3.30;;
65053;SDS011;51639;47.828;35.038;2023-05-29T06:42:58;4.37;;;3.20;;
65053;SDS011;51639;47.828;35.038;2023-05-29T06:58:00;7.57;;;3.67;;
65053;SDS011;51639;47.828;35.038;2023-05-29T07:13:02;6.40;;;3.93;;
65053;SDS011;51639;47.828;35.038;2023-05-29T07:28:04;7.83;;;4.27;;
65053;SDS011;51639;47.828;35.038;2023-05-29T07:43:22;7.88;;;4.43;;
65053;SDS011;51639;47.828;35.038;2023-05-29T07:58:24;5.40;;;3.47;;
65053;SDS011;51639;47.828;35.038;2023-05-29T08:13:26;13.40;;;4.20;;
65053;SDS011;51639;47.828;35.038;2023-05-29T08:28:28;5.22;;;3.42;;
65053;SDS011;51639;47.828;35.038;2023-05-29T08:58:33;7.78;;;3.72;;
65053;SDS011;51639;47.828;35.038;2023-05-29T09:13:36;5.75;;;3.22;;
65053;SDS011;51639;47.828;35.038;2023-05-29T09:28:38;6.93;;;2.85;;
65053;SDS011;51639;47.828;35.038;2023-05-29T09:43:40;4.78;;;3.40;;
65053;SDS011;51639;47.828;35.038;2023-05-29T09:58:43;7.78;;;3.38;;
65053;SDS011;51639;47.828;35.038;2023-05-29T10:13:54;5.47;;;3.33;;
65053;SDS011;51639;47.828;35.038;2023-05-29T10:59:35;4.13;;;2.97;;
65053;SDS011;51639;47.828;35.038;2023-05-29T11:31:17;6.25;;;2.97;;
65053;SDS011;51639;47.828;35.038;2023-05-29T11:46:23;5.07;;;2.90;;
65053;SDS011;51639;47.828;35.038;2023-05-29T12:01:25;3.63;;;2.50;;
65053;SDS011;51639;47.828;35.038;2023-05-29T12:16:30;5.43;;;3.08;;
65053;SDS011;51639;47.828;35.038;2023-05-29T12:31:34;3.55;;;2.75;;
65053;SDS011;51639;47.828;35.038;2023-05-29T12:46:40;8.70;;;2.80;;
65053;SDS011;51639;47.828;35.038;2023-05-29T13:01:46;9.52;;;2.88;;
65053;SDS011;51639;47.828;35.038;2023-05-29T13:16:48;5.75;;;3.60;;
65053;SDS011;51639;47.828;35.038;2023-05-29T13:31:53;6.20;;;3.67;;
65053;SDS011;51639;47.828;35.038;2023-05-29T13:46:59;9.77;;;7.93;;
65053;SDS011;51639;47.828;35.038;2023-05-29T14:02:10;6.93;;;3.97;;
65053;SDS011;51639;47.828;35.038;2023-05-29T14:17:13;5.13;;;3.72;;
65053;SDS011;51639;47.828;35.038;2023-05-29T14:32:18;8.05;;;2.90;;
65053;SDS011;51639;47.828;35.038;2023-05-29T14:47:20;7.20;;;4.67;;
65053;SDS011;51639;47.828;35.038;2023-05-29T15:02:22;5.03;;;3.83;;
65053;SDS011;51639;47.828;35.038;2023-05-29T15:17:28;7.97;;;4.88;;
65053;SDS011;51639;47.828;35.038;2023-05-29T15:32:44;5.72;;;3.40;;
65053;SDS011;51639;47.828;35.038;2023-05-29T15:47:48;7.10;;;3.45;;
65053;SDS011;51639;47.828;35.038;2023-05-29T16:02:51;8.03;;;5.00;;
65053;SDS011;51639;47.828;35.038;2023-05-29T16:17:53;16.30;;;5.05;;
65053;SDS011;51639;47.828;35.038;2023-05-29T16:32:55;6.20;;;3.75;;
65053;SDS011;51639;47.828;35.038;2023-05-29T16:47:57;8.90;;;5.53;;
65053;SDS011;51639;47.828;35.038;2023-05-29T17:02:59;7.97;;;6.10;;
65053;SDS011;51639;47.828;35.038;2023-05-29T17:18:01;16.70;;;7.28;;
65053;SDS011;51639;47.828;35.038;2023-05-29T17:33:04;36.47;;;17.92;;
65053;SDS011;51639;47.828;35.038;2023-05-29T17:48:06;31.73;;;17.05;;
65053;SDS011;51639;47.828;35.038;2023-05-29T18:03:08;27.27;;;13.63;;
65053;SDS011;51639;47.828;35.038;2023-05-29T18:33:52;25.05;;;11.80;;
65053;SDS011;51639;47.828;35.038;2023-05-29T18:48:54;14.38;;;7.82;;
65053;SDS011;51639;47.828;35.038;2023-05-29T19:03:56;16.00;;;9.18;;
65053;SDS011;51639;47.828;35.038;2023-05-29T19:18:58;11.95;;;7.68;;
65053;SDS011;51639;47.828;35.038;2023-05-29T19:34:01;15.38;;;10.32;;
65053;SDS011;51639;47.828;35.038;2023-05-29T19:49:04;15.83;;;10.40;;
65053;SDS011;51639;47.828;35.038;2023-05-29T20:04:09;24.52;;;14.48;;
65053;SDS011;51639;47.828;35.038;2023-05-29T20:19:11;12.85;;;8.45;;
65053;SDS011;51639;47.828;35.038;2023-05-29T20:34:13;17.73;;;9.30;;
65053;SDS011;51639;47.828;35.038;2023-05-29T20:49:15;12.75;;;7.72;;
65053;SDS011;51639;47.828;35.038;2023-05-29T21:04:18;15.97;;;8.17;;
65053;SDS011;51639;47.828;35.038;2023-05-29T21:19:21;14.07;;;8.32;;
65053;SDS011;51639;47.828;35.038;2023-05-29T21:34:24;16.63;;;9.93;;
65053;SDS011;51639;47.828;35.038;2023-05-29T21:49:26;13.63;;;9.00;;
65053;SDS011;51639;47.828;35.038;2023-05-29T22:04:28;13.88;;;9.15;;
65053;SDS011;51639;47.828;35.038;2023-05-29T22:19:30;18.55;;;9.35;;
65053;SDS011;51639;47.828;35.038;2023-05-29T22:34:32;16.05;;;7.22;;
65053;SDS011;51639;47.828;35.038;2023-05-29T22:49:34;15.68;;;10.20;;
65053;SDS011;51639;47.828;35.038;2023-05-29T23:04:36;9.65;;;6.15;;
65053;SDS011;51639;47.828;35.038;2023-05-29T23:19:38;17.50;;;7.93;;
65053;SDS011;51639;47.828;35.038;2023-05-29T23:34:40;35.78;;;19.05;;
65053;SDS011;51639;47.828;35.038;2023-05-29T23:49:43;14.52;;;7.20;;
